Vidfoss — V2QK4 — position and weather

sailwx.info

Track history (hours):
 
Tides and Currents Weather Stations Pressure Air Temp Water Temp Dewpoint Dewpoint Depression Visibility Wind Speed Wind Dir Waves Ship Positions

Vidfoss

Last reported at 2015-Mar-05 14:34 UTC. Time now 2015-Mar-05 14:42 UTC.
Position N 59°21' E 005°19'.

Length 93 m; draft 5.7 m.

Type: Cargo ship. MMSI: 305846000.

Date/timePositionNaut miles runAvg speedWind from/ knotsBaromVisibWave heightAir tempDewpointWater temp
2015-Mar-05 14:34N 59°21' E 005°19'  
2015-Mar-02 10:32N 62°53' E 006°58'156 7.1
2015-Mar-01 12:33N 64°46' E 011°03'1010.5
2015-Mar-01 11:33N 64°54' E 011°20'1111.3
2015-Mar-01 10:33N 65°01' E 011°40'7410.5
2015-Mar-01 03:32N 66°09' E 012°49'1210.8
2015-Mar-01 02:24N 66°21' E 012°57'1110.2
2015-Mar-01 01:21N 66°31' E 012°58'227 5.3
2015-Feb-27 06:33N 69°36' E 018°53'2 2.0
2015-Feb-27 05:33N 69°38' E 018°57'0 0.0
2015-Feb-27 04:33N 69°38' E 018°57'0 0.0
2015-Feb-27 03:33N 69°38' E 018°57'0 0.0
2015-Feb-27 02:33N 69°38' E 018°57'0 0.0
2015-Feb-27 01:33N 69°38' E 018°57'0 0.0
2015-Feb-27 00:33N 69°38' E 018°57'0 0.0
2015-Feb-26 23:33N 69°38' E 018°57'0 0.0
2015-Feb-26 22:33N 69°38' E 018°57'0 0.0
2015-Feb-26 21:33N 69°38' E 018°57'0 0.0
2015-Feb-26 20:33N 69°38' E 018°57'2 1.9
2015-Feb-26 19:33N 69°39' E 018°58'0 0.0
2015-Feb-26 18:33N 69°39' E 018°58'0 0.0
2015-Feb-26 17:33N 69°39' E 018°58'0 0.0
2015-Feb-26 16:33N 69°39' E 018°58'0 0.0
2015-Feb-26 15:33N 69°39' E 018°58'0 0.0
2015-Feb-26 14:33N 69°39' E 018°58'0 0.0
2015-Feb-26 13:33N 69°39' E 018°58'0 0.0
2015-Feb-26 12:33N 69°39' E 018°58'0 0.0
2015-Feb-26 11:33N 69°39' E 018°58'0 0.0
2015-Feb-26 10:33N 69°39' E 018°58'0 0.0
2015-Feb-26 09:33N 69°39' E 018°58'0 0.0
2015-Feb-26 08:33N 69°39' E 018°58'0 0.0
2015-Feb-26 07:33N 69°39' E 018°58'1 0.8
2015-Feb-26 06:33N 69°39' E 018°58'  
Track history (hours):
 
Tides and Currents Weather Stations Pressure Air Temp Water Temp Dewpoint Dewpoint Depression Visibility Wind Speed Wind Dir Waves Ship Positions

Vidfoss

Last reported at 2015-Mar-05 14:34 UTC. Time now 2015-Mar-05 14:42 UTC.
Position N 59°21' E 005°19'.

Length 93 m; draft 5.7 m.

Type: Cargo ship. MMSI: 305846000.

Date/timePositionNaut miles runAvg speedWind from/ knotsBaromVisibWave heightAir tempDewpointWater temp
2015-Mar-05 14:34N 59°21' E 005°19'  
2015-Mar-02 10:32N 62°53' E 006°58'156 7.1
2015-Mar-01 12:33N 64°46' E 011°03'1010.5
2015-Mar-01 11:33N 64°54' E 011°20'1111.3
2015-Mar-01 10:33N 65°01' E 011°40'7410.5
2015-Mar-01 03:32N 66°09' E 012°49'1210.8
2015-Mar-01 02:24N 66°21' E 012°57'1110.2
2015-Mar-01 01:21N 66°31' E 012°58'227 5.3
2015-Feb-27 06:33N 69°36' E 018°53'2 2.0
2015-Feb-27 05:33N 69°38' E 018°57'0 0.0
2015-Feb-27 04:33N 69°38' E 018°57'0 0.0
2015-Feb-27 03:33N 69°38' E 018°57'0 0.0
2015-Feb-27 02:33N 69°38' E 018°57'0 0.0
2015-Feb-27 01:33N 69°38' E 018°57'0 0.0
2015-Feb-27 00:33N 69°38' E 018°57'0 0.0
2015-Feb-26 23:33N 69°38' E 018°57'0 0.0
2015-Feb-26 22:33N 69°38' E 018°57'0 0.0
2015-Feb-26 21:33N 69°38' E 018°57'0 0.0
2015-Feb-26 20:33N 69°38' E 018°57'2 1.9
2015-Feb-26 19:33N 69°39' E 018°58'0 0.0
2015-Feb-26 18:33N 69°39' E 018°58'0 0.0
2015-Feb-26 17:33N 69°39' E 018°58'0 0.0
2015-Feb-26 16:33N 69°39' E 018°58'0 0.0
2015-Feb-26 15:33N 69°39' E 018°58'0 0.0
2015-Feb-26 14:33N 69°39' E 018°58'0 0.0
2015-Feb-26 13:33N 69°39' E 018°58'0 0.0
2015-Feb-26 12:33N 69°39' E 018°58'0 0.0
2015-Feb-26 11:33N 69°39' E 018°58'0 0.0
2015-Feb-26 10:33N 69°39' E 018°58'0 0.0
2015-Feb-26 09:33N 69°39' E 018°58'0 0.0
2015-Feb-26 08:33N 69°39' E 018°58'0 0.0
2015-Feb-26 07:33N 69°39' E 018°58'1 0.8
2015-Feb-26 06:33N 69°39' E 018°58'  

Dump ship's entire track history